sensor_id;sensor_type;location;lat;lon;timestamp;P1;durP1;ratioP1;P2;durP2;ratioP2
17169;SDS011;8700;48.222;16.342;2023-04-23T00:01:27;10.48;;;9.63;;
17169;SDS011;8700;48.222;16.342;2023-04-23T00:04:53;11.80;;;10.38;;
17169;SDS011;8700;48.222;16.342;2023-04-23T00:08:17;10.05;;;9.15;;
17169;SDS011;8700;48.222;16.342;2023-04-23T00:11:40;12.48;;;10.75;;
17169;SDS011;8700;48.222;16.342;2023-04-23T00:15:02;10.77;;;9.70;;
17169;SDS011;8700;48.222;16.342;2023-04-23T00:18:25;10.82;;;9.60;;
17169;SDS011;8700;48.222;16.342;2023-04-23T00:21:48;11.13;;;10.07;;
17169;SDS011;8700;48.222;16.342;2023-04-23T00:25:09;11.32;;;10.32;;
17169;SDS011;8700;48.222;16.342;2023-04-23T00:28:32;15.02;;;11.98;;
17169;SDS011;8700;48.222;16.342;2023-04-23T00:31:53;11.98;;;11.07;;
17169;SDS011;8700;48.222;16.342;2023-04-23T00:35:15;12.88;;;11.63;;
17169;SDS011;8700;48.222;16.342;2023-04-23T00:38:37;12.88;;;11.68;;
17169;SDS011;8700;48.222;16.342;2023-04-23T00:41:58;13.80;;;12.50;;
17169;SDS011;8700;48.222;16.342;2023-04-23T00:45:26;13.52;;;12.40;;
17169;SDS011;8700;48.222;16.342;2023-04-23T00:48:48;13.00;;;11.90;;
17169;SDS011;8700;48.222;16.342;2023-04-23T00:52:10;14.13;;;12.65;;
17169;SDS011;8700;48.222;16.342;2023-04-23T00:55:31;14.02;;;12.57;;
17169;SDS011;8700;48.222;16.342;2023-04-23T00:58:53;14.80;;;13.13;;
17169;SDS011;8700;48.222;16.342;2023-04-23T01:02:17;13.32;;;12.25;;
17169;SDS011;8700;48.222;16.342;2023-04-23T01:05:38;14.50;;;12.88;;
17169;SDS011;8700;48.222;16.342;2023-04-23T01:09:01;14.13;;;12.70;;
17169;SDS011;8700;48.222;16.342;2023-04-23T01:12:24;13.50;;;12.20;;
17169;SDS011;8700;48.222;16.342;2023-04-23T01:15:45;14.20;;;13.02;;
17169;SDS011;8700;48.222;16.342;2023-04-23T01:19:09;13.68;;;12.48;;
17169;SDS011;8700;48.222;16.342;2023-04-23T01:22:32;14.30;;;12.85;;
17169;SDS011;8700;48.222;16.342;2023-04-23T01:25:54;13.45;;;12.10;;
17169;SDS011;8700;48.222;16.342;2023-04-23T01:29:15;13.70;;;12.40;;
17169;SDS011;8700;48.222;16.342;2023-04-23T01:32:37;13.43;;;12.07;;
17169;SDS011;8700;48.222;16.342;2023-04-23T01:35:59;13.52;;;12.32;;
17169;SDS011;8700;48.222;16.342;2023-04-23T01:39:23;13.18;;;12.18;;
17169;SDS011;8700;48.222;16.342;2023-04-23T01:42:44;14.60;;;12.85;;
17169;SDS011;8700;48.222;16.342;2023-04-23T01:46:05;14.23;;;12.75;;
17169;SDS011;8700;48.222;16.342;2023-04-23T01:49:26;13.20;;;12.15;;
17169;SDS011;8700;48.222;16.342;2023-04-23T01:52:48;15.35;;;14.02;;
17169;SDS011;8700;48.222;16.342;2023-04-23T01:56:10;15.50;;;14.27;;
17169;SDS011;8700;48.222;16.342;2023-04-23T01:59:33;14.80;;;13.40;;
17169;SDS011;8700;48.222;16.342;2023-04-23T02:02:54;13.85;;;12.45;;
17169;SDS011;8700;48.222;16.342;2023-04-23T02:06:16;14.75;;;13.43;;
17169;SDS011;8700;48.222;16.342;2023-04-23T02:09:37;15.50;;;12.88;;
17169;SDS011;8700;48.222;16.342;2023-04-23T02:13:01;13.95;;;12.77;;
17169;SDS011;8700;48.222;16.342;2023-04-23T02:16:22;16.42;;;13.30;;
17169;SDS011;8700;48.222;16.342;2023-04-23T02:19:44;13.82;;;12.55;;
17169;SDS011;8700;48.222;16.342;2023-04-23T02:23:06;14.43;;;13.20;;
17169;SDS011;8700;48.222;16.342;2023-04-23T02:26:27;16.00;;;13.00;;
17169;SDS011;8700;48.222;16.342;2023-04-23T02:29:50;14.15;;;12.88;;
17169;SDS011;8700;48.222;16.342;2023-04-23T02:33:12;13.57;;;12.55;;
17169;SDS011;8700;48.222;16.342;2023-04-23T02:36:34;14.70;;;13.40;;
17169;SDS011;8700;48.222;16.342;2023-04-23T02:39:55;13.25;;;11.98;;
17169;SDS011;8700;48.222;16.342;2023-04-23T02:43:16;13.80;;;12.65;;
17169;SDS011;8700;48.222;16.342;2023-04-23T02:46:38;13.70;;;12.38;;
17169;SDS011;8700;48.222;16.342;2023-04-23T02:50:00;17.35;;;13.20;;
17169;SDS011;8700;48.222;16.342;2023-04-23T02:53:24;12.82;;;11.77;;
17169;SDS011;8700;48.222;16.342;2023-04-23T02:56:45;14.57;;;13.18;;
17169;SDS011;8700;48.222;16.342;2023-04-23T03:00:07;13.63;;;12.38;;
17169;SDS011;8700;48.222;16.342;2023-04-23T03:03:32;14.77;;;13.48;;
17169;SDS011;8700;48.222;16.342;2023-04-23T03:06:53;14.73;;;13.05;;
17169;SDS011;8700;48.222;16.342;2023-04-23T03:10:14;13.13;;;11.88;;
17169;SDS011;8700;48.222;16.342;2023-04-23T03:13:36;15.27;;;12.30;;
17169;SDS011;8700;48.222;16.342;2023-04-23T03:16:57;13.57;;;12.05;;
17169;SDS011;8700;48.222;16.342;2023-04-23T03:20:20;15.73;;;13.02;;
17169;SDS011;8700;48.222;16.342;2023-04-23T03:23:41;13.70;;;12.50;;
17169;SDS011;8700;48.222;16.342;2023-04-23T03:27:03;13.23;;;11.90;;
17169;SDS011;8700;48.222;16.342;2023-04-23T03:30:24;12.68;;;11.50;;
17169;SDS011;8700;48.222;16.342;2023-04-23T03:33:46;13.90;;;12.60;;
17169;SDS011;8700;48.222;16.342;2023-04-23T03:37:08;13.20;;;11.75;;
17169;SDS011;8700;48.222;16.342;2023-04-23T03:40:30;14.38;;;12.93;;
17169;SDS011;8700;48.222;16.342;2023-04-23T03:43:51;13.52;;;12.27;;
17169;SDS011;8700;48.222;16.342;2023-04-23T03:47:12;13.55;;;12.25;;
17169;SDS011;8700;48.222;16.342;2023-04-23T03:50:33;13.75;;;12.45;;
17169;SDS011;8700;48.222;16.342;2023-04-23T03:53:58;12.87;;;11.77;;
17169;SDS011;8700;48.222;16.342;2023-04-23T03:57:20;12.52;;;11.52;;
17169;SDS011;8700;48.222;16.342;2023-04-23T04:00:41;12.18;;;11.18;;
17169;SDS011;8700;48.222;16.342;2023-04-23T04:04:02;13.30;;;12.18;;
17169;SDS011;8700;48.222;16.342;2023-04-23T04:07:24;13.13;;;11.00;;
17169;SDS011;8700;48.222;16.342;2023-04-23T04:10:46;13.07;;;11.83;;
17169;SDS011;8700;48.222;16.342;2023-04-23T04:14:07;13.43;;;12.20;;
17169;SDS011;8700;48.222;16.342;2023-04-23T04:17:29;15.03;;;13.47;;
17169;SDS011;8700;48.222;16.342;2023-04-23T04:20:50;15.13;;;12.55;;
17169;SDS011;8700;48.222;16.342;2023-04-23T04:24:11;13.70;;;12.33;;
17169;SDS011;8700;48.222;16.342;2023-04-23T04:27:34;14.50;;;13.30;;
17169;SDS011;8700;48.222;16.342;2023-04-23T04:30:56;15.00;;;13.65;;
17169;SDS011;8700;48.222;16.342;2023-04-23T04:34:18;14.25;;;13.15;;
17169;SDS011;8700;48.222;16.342;2023-04-23T04:37:40;14.30;;;13.10;;
17169;SDS011;8700;48.222;16.342;2023-04-23T04:41:02;14.40;;;13.17;;
17169;SDS011;8700;48.222;16.342;2023-04-23T04:44:25;18.07;;;14.27;;
17169;SDS011;8700;48.222;16.342;2023-04-23T04:47:46;14.85;;;13.45;;
17169;SDS011;8700;48.222;16.342;2023-04-23T04:51:07;14.60;;;13.27;;
17169;SDS011;8700;48.222;16.342;2023-04-23T04:54:28;16.17;;;14.70;;
17169;SDS011;8700;48.222;16.342;2023-04-23T04:57:49;17.02;;;15.45;;
17169;SDS011;8700;48.222;16.342;2023-04-23T05:01:12;16.83;;;15.32;;
17169;SDS011;8700;48.222;16.342;2023-04-23T05:04:33;17.75;;;15.95;;
17169;SDS011;8700;48.222;16.342;2023-04-23T05:07:54;17.33;;;14.95;;
17169;SDS011;8700;48.222;16.342;2023-04-23T05:11:17;15.90;;;14.45;;
17169;SDS011;8700;48.222;16.342;2023-04-23T05:14:39;17.13;;;15.55;;
17169;SDS011;8700;48.222;16.342;2023-04-23T05:18:03;17.88;;;16.10;;
17169;SDS011;8700;48.222;16.342;2023-04-23T05:21:26;16.90;;;15.32;;
17169;SDS011;8700;48.222;16.342;2023-04-23T05:24:47;16.85;;;15.40;;
17169;SDS011;8700;48.222;16.342;2023-04-23T05:28:08;18.33;;;16.45;;
17169;SDS011;8700;48.222;16.342;2023-04-23T05:31:29;19.60;;;17.75;;
17169;SDS011;8700;48.222;16.342;2023-04-23T05:34:52;19.88;;;17.80;;
17169;SDS011;8700;48.222;16.342;2023-04-23T05:38:14;18.88;;;17.23;;
17169;SDS011;8700;48.222;16.342;2023-04-23T05:41:35;19.10;;;17.10;;
17169;SDS011;8700;48.222;16.342;2023-04-23T05:44:56;19.48;;;17.58;;
17169;SDS011;8700;48.222;16.342;2023-04-23T05:48:17;20.65;;;18.83;;
17169;SDS011;8700;48.222;16.342;2023-04-23T05:51:40;19.70;;;17.98;;
17169;SDS011;8700;48.222;16.342;2023-04-23T05:55:01;20.05;;;18.23;;
17169;SDS011;8700;48.222;16.342;2023-04-23T05:58:23;21.50;;;19.42;;
17169;SDS011;8700;48.222;16.342;2023-04-23T06:01:44;20.35;;;18.52;;
17169;SDS011;8700;48.222;16.342;2023-04-23T06:05:06;21.85;;;20.00;;
17169;SDS011;8700;48.222;16.342;2023-04-23T06:08:29;20.73;;;18.95;;
17169;SDS011;8700;48.222;16.342;2023-04-23T06:11:50;20.92;;;19.10;;
17169;SDS011;8700;48.222;16.342;2023-04-23T06:15:12;20.83;;;18.75;;
17169;SDS011;8700;48.222;16.342;2023-04-23T06:18:33;21.48;;;19.58;;
17169;SDS011;8700;48.222;16.342;2023-04-23T06:21:56;19.85;;;17.92;;
17169;SDS011;8700;48.222;16.342;2023-04-23T06:25:18;20.70;;;18.88;;
17169;SDS011;8700;48.222;16.342;2023-04-23T06:28:40;21.30;;;19.08;;
17169;SDS011;8700;48.222;16.342;2023-04-23T06:32:02;21.20;;;19.20;;
17169;SDS011;8700;48.222;16.342;2023-04-23T06:35:23;23.33;;;18.70;;
17169;SDS011;8700;48.222;16.342;2023-04-23T06:38:45;20.60;;;18.80;;
17169;SDS011;8700;48.222;16.342;2023-04-23T06:42:07;19.95;;;18.15;;
17169;SDS011;8700;48.222;16.342;2023-04-23T06:45:28;19.95;;;18.02;;
17169;SDS011;8700;48.222;16.342;2023-04-23T06:48:50;19.77;;;17.92;;
17169;SDS011;8700;48.222;16.342;2023-04-23T06:52:11;21.10;;;19.50;;
17169;SDS011;8700;48.222;16.342;2023-04-23T06:55:32;21.55;;;19.63;;
17169;SDS011;8700;48.222;16.342;2023-04-23T06:58:55;19.27;;;17.70;;
17169;SDS011;8700;48.222;16.342;2023-04-23T07:02:16;18.65;;;16.90;;
17169;SDS011;8700;48.222;16.342;2023-04-23T07:05:37;20.63;;;18.77;;
17169;SDS011;8700;48.222;16.342;2023-04-23T07:08:58;21.33;;;18.45;;
17169;SDS011;8700;48.222;16.342;2023-04-23T07:12:20;19.08;;;17.38;;
17169;SDS011;8700;48.222;16.342;2023-04-23T07:15:42;18.98;;;17.35;;
17169;SDS011;8700;48.222;16.342;2023-04-23T07:19:03;18.88;;;17.35;;
17169;SDS011;8700;48.222;16.342;2023-04-23T07:22:25;19.65;;;18.05;;
17169;SDS011;8700;48.222;16.342;2023-04-23T07:25:46;18.88;;;17.10;;
17169;SDS011;8700;48.222;16.342;2023-04-23T07:29:07;19.83;;;17.77;;
17169;SDS011;8700;48.222;16.342;2023-04-23T07:32:31;18.02;;;16.63;;
17169;SDS011;8700;48.222;16.342;2023-04-23T07:35:52;18.55;;;16.85;;
17169;SDS011;8700;48.222;16.342;2023-04-23T07:39:13;19.17;;;17.45;;
17169;SDS011;8700;48.222;16.342;2023-04-23T07:42:34;19.58;;;17.92;;
17169;SDS011;8700;48.222;16.342;2023-04-23T07:45:55;18.80;;;17.20;;
17169;SDS011;8700;48.222;16.342;2023-04-23T07:49:18;17.42;;;16.23;;
17169;SDS011;8700;48.222;16.342;2023-04-23T07:52:39;17.58;;;16.10;;
17169;SDS011;8700;48.222;16.342;2023-04-23T07:56:01;18.75;;;17.00;;
17169;SDS011;8700;48.222;16.342;2023-04-23T07:59:22;17.73;;;16.23;;
17169;SDS011;8700;48.222;16.342;2023-04-23T08:02:43;17.23;;;15.80;;
17169;SDS011;8700;48.222;16.342;2023-04-23T08:06:06;17.10;;;15.73;;
17169;SDS011;8700;48.222;16.342;2023-04-23T08:09:27;18.52;;;16.75;;
17169;SDS011;8700;48.222;16.342;2023-04-23T08:12:49;17.48;;;16.08;;
17169;SDS011;8700;48.222;16.342;2023-04-23T08:16:10;17.50;;;16.05;;
17169;SDS011;8700;48.222;16.342;2023-04-23T08:19:31;15.32;;;14.23;;
17169;SDS011;8700;48.222;16.342;2023-04-23T08:22:53;14.80;;;13.70;;
17169;SDS011;8700;48.222;16.342;2023-04-23T08:26:15;14.82;;;13.43;;
17169;SDS011;8700;48.222;16.342;2023-04-23T08:29:36;14.38;;;13.30;;
17169;SDS011;8700;48.222;16.342;2023-04-23T08:32:57;14.75;;;13.45;;
17169;SDS011;8700;48.222;16.342;2023-04-23T08:36:18;13.73;;;12.63;;
17169;SDS011;8700;48.222;16.342;2023-04-23T08:39:41;15.07;;;13.85;;
17169;SDS011;8700;48.222;16.342;2023-04-23T08:43:05;11.73;;;10.68;;
17169;SDS011;8700;48.222;16.342;2023-04-23T08:46:30;13.43;;;12.30;;
17169;SDS011;8700;48.222;16.342;2023-04-23T08:49:53;13.20;;;11.93;;
17169;SDS011;8700;48.222;16.342;2023-04-23T08:53:15;12.80;;;11.90;;
17169;SDS011;8700;48.222;16.342;2023-04-23T08:56:40;13.68;;;12.63;;
17169;SDS011;8700;48.222;16.342;2023-04-23T09:00:02;13.05;;;12.05;;
17169;SDS011;8700;48.222;16.342;2023-04-23T09:03:25;12.65;;;11.48;;
17169;SDS011;8700;48.222;16.342;2023-04-23T09:06:47;11.63;;;10.82;;
17169;SDS011;8700;48.222;16.342;2023-04-23T09:10:09;12.95;;;11.80;;
17169;SDS011;8700;48.222;16.342;2023-04-23T09:13:33;13.43;;;12.32;;
17169;SDS011;8700;48.222;16.342;2023-04-23T09:16:55;13.18;;;11.85;;
17169;SDS011;8700;48.222;16.342;2023-04-23T09:20:16;11.63;;;10.73;;
17169;SDS011;8700;48.222;16.342;2023-04-23T09:23:38;12.50;;;11.60;;
17169;SDS011;8700;48.222;16.342;2023-04-23T09:26:59;11.27;;;10.43;;
17169;SDS011;8700;48.222;16.342;2023-04-23T09:30:22;11.77;;;10.68;;
17169;SDS011;8700;48.222;16.342;2023-04-23T09:33:49;11.95;;;10.68;;
17169;SDS011;8700;48.222;16.342;2023-04-23T09:37:11;11.50;;;10.57;;
17169;SDS011;8700;48.222;16.342;2023-04-23T09:40:34;13.15;;;12.13;;
17169;SDS011;8700;48.222;16.342;2023-04-23T09:43:56;11.52;;;10.63;;
17169;SDS011;8700;48.222;16.342;2023-04-23T09:47:20;11.82;;;10.73;;
17169;SDS011;8700;48.222;16.342;2023-04-23T09:50:41;13.70;;;12.70;;
17169;SDS011;8700;48.222;16.342;2023-04-23T09:54:02;12.02;;;10.90;;
17169;SDS011;8700;48.222;16.342;2023-04-23T09:57:25;10.68;;;9.88;;
17169;SDS011;8700;48.222;16.342;2023-04-23T10:00:46;10.38;;;9.38;;
17169;SDS011;8700;48.222;16.342;2023-04-23T10:04:12;11.13;;;10.13;;
17169;SDS011;8700;48.222;16.342;2023-04-23T10:07:39;9.77;;;8.85;;
17169;SDS011;8700;48.222;16.342;2023-04-23T10:11:00;10.90;;;9.98;;
17169;SDS011;8700;48.222;16.342;2023-04-23T10:14:22;9.43;;;8.73;;
17169;SDS011;8700;48.222;16.342;2023-04-23T10:17:44;9.82;;;8.98;;
17169;SDS011;8700;48.222;16.342;2023-04-23T10:21:08;10.40;;;8.75;;
17169;SDS011;8700;48.222;16.342;2023-04-23T10:24:31;9.27;;;8.63;;
17169;SDS011;8700;48.222;16.342;2023-04-23T10:27:53;7.68;;;7.18;;
17169;SDS011;8700;48.222;16.342;2023-04-23T10:31:16;8.77;;;8.10;;
17169;SDS011;8700;48.222;16.342;2023-04-23T10:34:39;7.38;;;6.97;;
17169;SDS011;8700;48.222;16.342;2023-04-23T10:38:02;8.55;;;7.90;;
17169;SDS011;8700;48.222;16.342;2023-04-23T10:41:24;7.93;;;7.43;;
17169;SDS011;8700;48.222;16.342;2023-04-23T10:44:49;8.80;;;7.97;;
17169;SDS011;8700;48.222;16.342;2023-04-23T10:48:15;8.25;;;7.28;;
17169;SDS011;8700;48.222;16.342;2023-04-23T10:51:36;7.45;;;7.00;;
17169;SDS011;8700;48.222;16.342;2023-04-23T10:54:59;7.80;;;7.18;;
17169;SDS011;8700;48.222;16.342;2023-04-23T10:58:20;8.65;;;7.88;;
17169;SDS011;8700;48.222;16.342;2023-04-23T11:01:44;7.45;;;7.05;;
17169;SDS011;8700;48.222;16.342;2023-04-23T11:05:07;7.57;;;7.07;;
17169;SDS011;8700;48.222;16.342;2023-04-23T11:08:29;7.75;;;7.05;;
17169;SDS011;8700;48.222;16.342;2023-04-23T11:11:52;8.35;;;7.65;;
17169;SDS011;8700;48.222;16.342;2023-04-23T11:15:15;8.15;;;7.47;;
17169;SDS011;8700;48.222;16.342;2023-04-23T11:18:57;7.43;;;6.82;;
17169;SDS011;8700;48.222;16.342;2023-04-23T11:22:21;7.05;;;6.55;;
17169;SDS011;8700;48.222;16.342;2023-04-23T11:25:43;8.50;;;7.80;;
17169;SDS011;8700;48.222;16.342;2023-04-23T11:29:07;9.60;;;8.75;;
17169;SDS011;8700;48.222;16.342;2023-04-23T11:32:31;8.52;;;7.72;;
17169;SDS011;8700;48.222;16.342;2023-04-23T11:35:52;8.40;;;7.78;;
17169;SDS011;8700;48.222;16.342;2023-04-23T11:39:14;8.82;;;8.23;;
17169;SDS011;8700;48.222;16.342;2023-04-23T11:42:40;8.63;;;7.95;;
17169;SDS011;8700;48.222;16.342;2023-04-23T11:46:06;8.23;;;7.63;;
17169;SDS011;8700;48.222;16.342;2023-04-23T11:49:28;8.93;;;8.35;;
17169;SDS011;8700;48.222;16.342;2023-04-23T11:52:49;8.40;;;7.80;;
17169;SDS011;8700;48.222;16.342;2023-04-23T11:56:11;8.85;;;8.05;;
17169;SDS011;8700;48.222;16.342;2023-04-23T11:59:32;9.35;;;8.70;;
17169;SDS011;8700;48.222;16.342;2023-04-23T12:02:55;8.68;;;7.97;;
17169;SDS011;8700;48.222;16.342;2023-04-23T12:06:17;8.93;;;8.23;;
17169;SDS011;8700;48.222;16.342;2023-04-23T12:09:39;8.48;;;7.88;;
17169;SDS011;8700;48.222;16.342;2023-04-23T12:13:00;9.43;;;8.60;;
17169;SDS011;8700;48.222;16.342;2023-04-23T12:16:32;8.45;;;7.80;;
17169;SDS011;8700;48.222;16.342;2023-04-23T12:19:55;8.18;;;7.57;;
17169;SDS011;8700;48.222;16.342;2023-04-23T12:23:17;8.73;;;8.05;;
17169;SDS011;8700;48.222;16.342;2023-04-23T12:26:38;7.45;;;6.95;;
17169;SDS011;8700;48.222;16.342;2023-04-23T12:29:59;8.20;;;7.55;;
17169;SDS011;8700;48.222;16.342;2023-04-23T12:33:20;8.75;;;8.00;;
17169;SDS011;8700;48.222;16.342;2023-04-23T12:36:46;8.57;;;7.93;;
17169;SDS011;8700;48.222;16.342;2023-04-23T12:40:09;8.05;;;7.47;;
17169;SDS011;8700;48.222;16.342;2023-04-23T12:43:31;8.35;;;7.85;;
17169;SDS011;8700;48.222;16.342;2023-04-23T12:46:56;7.82;;;7.22;;
17169;SDS011;8700;48.222;16.342;2023-04-23T12:50:19;7.70;;;7.20;;
17169;SDS011;8700;48.222;16.342;2023-04-23T12:53:41;7.60;;;7.10;;
17169;SDS011;8700;48.222;16.342;2023-04-23T12:57:03;8.48;;;7.72;;
17169;SDS011;8700;48.222;16.342;2023-04-23T13:00:25;8.13;;;6.78;;
17169;SDS011;8700;48.222;16.342;2023-04-23T13:03:47;7.43;;;6.82;;
17169;SDS011;8700;48.222;16.342;2023-04-23T13:07:08;7.85;;;7.22;;
17169;SDS011;8700;48.222;16.342;2023-04-23T13:10:30;7.18;;;6.68;;
17169;SDS011;8700;48.222;16.342;2023-04-23T13:13:52;7.60;;;7.05;;
17169;SDS011;8700;48.222;16.342;2023-04-23T13:17:14;7.18;;;6.57;;
17169;SDS011;8700;48.222;16.342;2023-04-23T13:20:35;9.00;;;7.55;;
17169;SDS011;8700;48.222;16.342;2023-04-23T13:23:57;7.78;;;7.10;;
17169;SDS011;8700;48.222;16.342;2023-04-23T13:27:19;8.00;;;7.20;;
17169;SDS011;8700;48.222;16.342;2023-04-23T13:30:40;7.28;;;6.65;;
17169;SDS011;8700;48.222;16.342;2023-04-23T13:34:01;8.27;;;7.50;;
17169;SDS011;8700;48.222;16.342;2023-04-23T13:37:23;7.70;;;7.20;;
17169;SDS011;8700;48.222;16.342;2023-04-23T13:40:45;7.30;;;6.70;;
17169;SDS011;8700;48.222;16.342;2023-04-23T13:44:08;7.82;;;7.22;;
17169;SDS011;8700;48.222;16.342;2023-04-23T13:47:30;7.55;;;7.05;;
17169;SDS011;8700;48.222;16.342;2023-04-23T13:50:53;7.43;;;6.72;;
17169;SDS011;8700;48.222;16.342;2023-04-23T13:54:14;7.85;;;7.28;;
17169;SDS011;8700;48.222;16.342;2023-04-23T13:57:36;7.13;;;6.55;;
17169;SDS011;8700;48.222;16.342;2023-04-23T14:00:58;8.45;;;7.88;;
17169;SDS011;8700;48.222;16.342;2023-04-23T14:04:20;7.53;;;7.03;;
17169;SDS011;8700;48.222;16.342;2023-04-23T14:07:42;7.20;;;6.70;;
17169;SDS011;8700;48.222;16.342;2023-04-23T14:11:03;7.55;;;7.00;;
17169;SDS011;8700;48.222;16.342;2023-04-23T14:14:24;10.07;;;7.68;;
17169;SDS011;8700;48.222;16.342;2023-04-23T14:17:49;7.03;;;6.63;;
17169;SDS011;8700;48.222;16.342;2023-04-23T14:21:11;7.38;;;6.80;;
17169;SDS011;8700;48.222;16.342;2023-04-23T14:24:33;7.05;;;6.43;;
17169;SDS011;8700;48.222;16.342;2023-04-23T14:27:58;8.23;;;7.60;;
17169;SDS011;8700;48.222;16.342;2023-04-23T14:31:28;7.50;;;6.97;;
17169;SDS011;8700;48.222;16.342;2023-04-23T14:34:51;7.97;;;7.35;;
17169;SDS011;8700;48.222;16.342;2023-04-23T14:38:12;8.73;;;8.02;;
17169;SDS011;8700;48.222;16.342;2023-04-23T14:41:33;8.40;;;7.72;;
17169;SDS011;8700;48.222;16.342;2023-04-23T14:44:57;8.52;;;7.88;;
17169;SDS011;8700;48.222;16.342;2023-04-23T14:48:18;7.50;;;6.45;;
17169;SDS011;8700;48.222;16.342;2023-04-23T14:51:41;6.68;;;6.18;;
17169;SDS011;8700;48.222;16.342;2023-04-23T14:55:02;10.18;;;8.05;;
17169;SDS011;8700;48.222;16.342;2023-04-23T14:58:24;7.32;;;6.80;;
17169;SDS011;8700;48.222;16.342;2023-04-23T15:01:45;8.50;;;7.68;;
17169;SDS011;8700;48.222;16.342;2023-04-23T15:05:07;10.27;;;9.48;;
17169;SDS011;8700;48.222;16.342;2023-04-23T15:08:30;8.25;;;7.55;;
17169;SDS011;8700;48.222;16.342;2023-04-23T15:11:51;8.93;;;7.90;;
17169;SDS011;8700;48.222;16.342;2023-04-23T15:15:13;7.97;;;7.18;;
17169;SDS011;8700;48.222;16.342;2023-04-23T15:18:39;8.05;;;7.35;;
17169;SDS011;8700;48.222;16.342;2023-04-23T15:22:00;7.75;;;7.05;;
17169;SDS011;8700;48.222;16.342;2023-04-23T15:25:23;6.90;;;6.13;;
17169;SDS011;8700;48.222;16.342;2023-04-23T15:28:44;7.75;;;7.15;;
17169;SDS011;8700;48.222;16.342;2023-04-23T15:32:05;9.65;;;7.10;;
17169;SDS011;8700;48.222;16.342;2023-04-23T15:35:28;7.53;;;6.93;;
17169;SDS011;8700;48.222;16.342;2023-04-23T15:38:49;8.23;;;7.53;;
17169;SDS011;8700;48.222;16.342;2023-04-23T15:42:12;7.05;;;6.53;;
17169;SDS011;8700;48.222;16.342;2023-04-23T15:45:36;8.05;;;7.40;;
17169;SDS011;8700;48.222;16.342;2023-04-23T15:48:57;7.25;;;6.70;;
17169;SDS011;8700;48.222;16.342;2023-04-23T15:52:19;7.78;;;7.20;;
17169;SDS011;8700;48.222;16.342;2023-04-23T15:55:40;8.15;;;7.50;;
17169;SDS011;8700;48.222;16.342;2023-04-23T15:59:03;8.57;;;7.53;;
17169;SDS011;8700;48.222;16.342;2023-04-23T16:02:24;8.23;;;7.63;;
17169;SDS011;8700;48.222;16.342;2023-04-23T16:05:46;9.02;;;8.20;;
17169;SDS011;8700;48.222;16.342;2023-04-23T16:09:09;8.85;;;8.15;;
17169;SDS011;8700;48.222;16.342;2023-04-23T16:12:30;7.97;;;6.82;;
17169;SDS011;8700;48.222;16.342;2023-04-23T16:15:53;9.18;;;8.43;;
17169;SDS011;8700;48.222;16.342;2023-04-23T16:19:14;11.40;;;7.60;;
17169;SDS011;8700;48.222;16.342;2023-04-23T16:22:36;8.98;;;8.05;;
17169;SDS011;8700;48.222;16.342;2023-04-23T16:25:57;8.93;;;8.13;;
17169;SDS011;8700;48.222;16.342;2023-04-23T16:29:19;8.90;;;8.07;;
17169;SDS011;8700;48.222;16.342;2023-04-23T16:32:42;8.43;;;7.28;;
17169;SDS011;8700;48.222;16.342;2023-04-23T16:36:04;7.95;;;7.45;;
17169;SDS011;8700;48.222;16.342;2023-04-23T16:39:26;8.40;;;7.80;;
17169;SDS011;8700;48.222;16.342;2023-04-23T16:42:47;8.70;;;7.93;;
17169;SDS011;8700;48.222;16.342;2023-04-23T16:46:08;10.70;;;9.70;;
17169;SDS011;8700;48.222;16.342;2023-04-23T16:49:31;9.48;;;8.77;;
17169;SDS011;8700;48.222;16.342;2023-04-23T16:52:52;8.00;;;7.30;;
17169;SDS011;8700;48.222;16.342;2023-04-23T16:56:13;8.80;;;7.32;;
17169;SDS011;8700;48.222;16.342;2023-04-23T16:59:35;9.02;;;8.23;;
17169;SDS011;8700;48.222;16.342;2023-04-23T17:02:58;8.98;;;8.32;;
17169;SDS011;8700;48.222;16.342;2023-04-23T17:06:25;8.57;;;7.88;;
17169;SDS011;8700;48.222;16.342;2023-04-23T17:09:47;9.65;;;8.95;;
17169;SDS011;8700;48.222;16.342;2023-04-23T17:13:08;9.23;;;8.52;;
17169;SDS011;8700;48.222;16.342;2023-04-23T17:16:29;8.57;;;7.78;;
17169;SDS011;8700;48.222;16.342;2023-04-23T17:19:51;10.40;;;7.68;;
17169;SDS011;8700;48.222;16.342;2023-04-23T17:23:13;6.13;;;5.72;;
17169;SDS011;8700;48.222;16.342;2023-04-23T17:26:35;6.45;;;5.30;;
17169;SDS011;8700;48.222;16.342;2023-04-23T17:29:57;5.30;;;4.95;;
17169;SDS011;8700;48.222;16.342;2023-04-23T17:33:19;5.80;;;5.30;;
17169;SDS011;8700;48.222;16.342;2023-04-23T17:36:40;6.53;;;6.03;;
17169;SDS011;8700;48.222;16.342;2023-04-23T17:40:03;6.90;;;6.40;;
17169;SDS011;8700;48.222;16.342;2023-04-23T17:43:25;7.43;;;6.78;;
17169;SDS011;8700;48.222;16.342;2023-04-23T17:46:46;6.43;;;5.82;;
17169;SDS011;8700;48.222;16.342;2023-04-23T17:50:10;5.68;;;4.45;;
17169;SDS011;8700;48.222;16.342;2023-04-23T17:53:31;5.68;;;5.28;;
17169;SDS011;8700;48.222;16.342;2023-04-23T17:56:54;5.60;;;5.20;;
17169;SDS011;8700;48.222;16.342;2023-04-23T18:00:16;5.05;;;4.75;;
17169;SDS011;8700;48.222;16.342;2023-04-23T18:03:38;5.03;;;4.63;;
17169;SDS011;8700;48.222;16.342;2023-04-23T18:06:59;4.65;;;4.30;;
17169;SDS011;8700;48.222;16.342;2023-04-23T18:10:20;5.20;;;4.15;;
17169;SDS011;8700;48.222;16.342;2023-04-23T18:13:43;4.75;;;4.45;;
17169;SDS011;8700;48.222;16.342;2023-04-23T18:17:04;8.00;;;7.40;;
17169;SDS011;8700;48.222;16.342;2023-04-23T18:20:26;4.15;;;3.83;;
17169;SDS011;8700;48.222;16.342;2023-04-23T18:23:48;4.07;;;3.80;;
17169;SDS011;8700;48.222;16.342;2023-04-23T18:27:09;4.78;;;4.47;;
17169;SDS011;8700;48.222;16.342;2023-04-23T18:30:32;6.93;;;6.32;;
17169;SDS011;8700;48.222;16.342;2023-04-23T18:33:57;6.10;;;5.60;;
17169;SDS011;8700;48.222;16.342;2023-04-23T18:37:29;5.40;;;4.95;;
17169;SDS011;8700;48.222;16.342;2023-04-23T18:40:52;4.85;;;4.55;;
17169;SDS011;8700;48.222;16.342;2023-04-23T18:44:13;5.13;;;4.72;;
17169;SDS011;8700;48.222;16.342;2023-04-23T18:47:37;6.13;;;5.63;;
17169;SDS011;8700;48.222;16.342;2023-04-23T18:51:03;7.18;;;6.47;;
17169;SDS011;8700;48.222;16.342;2023-04-23T18:54:32;7.78;;;7.07;;
17169;SDS011;8700;48.222;16.342;2023-04-23T18:57:53;5.63;;;5.22;;
17169;SDS011;8700;48.222;16.342;2023-04-23T19:01:15;7.22;;;6.57;;
17169;SDS011;8700;48.222;16.342;2023-04-23T19:04:40;6.35;;;5.95;;
17169;SDS011;8700;48.222;16.342;2023-04-23T19:08:01;5.90;;;5.40;;
17169;SDS011;8700;48.222;16.342;2023-04-23T19:11:22;6.25;;;5.85;;
17169;SDS011;8700;48.222;16.342;2023-04-23T19:14:45;5.93;;;5.53;;
17169;SDS011;8700;48.222;16.342;2023-04-23T19:18:06;6.28;;;5.78;;
17169;SDS011;8700;48.222;16.342;2023-04-23T19:21:29;6.88;;;6.38;;
17169;SDS011;8700;48.222;16.342;2023-04-23T19:24:50;6.28;;;5.88;;
17169;SDS011;8700;48.222;16.342;2023-04-23T19:28:12;8.27;;;7.45;;
17169;SDS011;8700;48.222;16.342;2023-04-23T19:31:33;7.15;;;6.65;;
17169;SDS011;8700;48.222;16.342;2023-04-23T19:34:55;8.57;;;7.70;;
17169;SDS011;8700;48.222;16.342;2023-04-23T19:38:17;7.38;;;6.70;;
17169;SDS011;8700;48.222;16.342;2023-04-23T19:41:39;6.68;;;6.18;;
17169;SDS011;8700;48.222;16.342;2023-04-23T19:45:00;7.35;;;6.72;;
17169;SDS011;8700;48.222;16.342;2023-04-23T19:48:22;9.68;;;7.88;;
17169;SDS011;8700;48.222;16.342;2023-04-23T19:51:43;10.77;;;9.60;;
17169;SDS011;8700;48.222;16.342;2023-04-23T19:55:07;8.60;;;7.80;;
17169;SDS011;8700;48.222;16.342;2023-04-23T19:58:28;8.55;;;7.75;;